Time;durP1;ratioP1;P1;durP2;ratioP2;P2;SDS_P1;SDS_P2;PMS_P1;PMS_P2;Temp;Humidity;BMP_temperature;BMP_pressure;BME280_temperature;BME280_humidity;BME280_pressure;Samples;Min_cycle;Max_cycle;Signal;HPM_P1;HPM_P2
2023/10/21 00:00:44;;;;;;;11.90;9.20;;;6.40;99.90;;;;;;5027651;28;20447;-58
2023/10/21 00:03:11;;;;;;;10.33;8.27;;;6.40;99.90;;;;;;5031983;28;20459;-58
2023/10/21 00:05:39;;;;;;;17.33;9.83;;;6.40;99.90;;;;;;5029065;28;20553;-56
2023/10/21 00:08:06;;;;;;;12.43;9.33;;;6.40;99.90;;;;;;5032468;28;20459;-55
2023/10/21 00:10:33;;;;;;;11.97;8.60;;;6.40;99.90;;;;;;5040282;28;20447;-55
2023/10/21 00:13:00;;;;;;;12.37;9.00;;;6.40;99.90;;;;;;5051042;28;20526;-55
2023/10/21 00:15:26;;;;;;;14.03;9.20;;;6.40;99.90;;;;;;5048187;28;20451;-56
2023/10/21 00:17:53;;;;;;;21.60;9.87;;;6.40;99.90;;;;;;5052503;28;20512;-56
2023/10/21 00:20:19;;;;;;;14.60;10.70;;;6.50;99.90;;;;;;5045219;28;20505;-55
2023/10/21 00:22:47;;;;;;;20.10;10.60;;;6.50;99.90;;;;;;5027684;28;20455;-56
2023/10/21 00:25:14;;;;;;;13.77;9.90;;;6.50;99.90;;;;;;5025581;28;20988;-56
2023/10/21 00:27:40;;;;;;;14.60;10.77;;;6.50;99.90;;;;;;5031242;28;20972;-55
2023/10/21 00:30:08;;;;;;;15.20;10.20;;;6.50;99.90;;;;;;5027686;28;20971;-56
2023/10/21 00:32:35;;;;;;;14.10;11.13;;;6.50;99.90;;;;;;5034359;28;21014;-55
2023/10/21 00:35:01;;;;;;;17.17;10.50;;;6.50;99.90;;;;;;5031301;28;20443;-56
2023/10/21 00:37:28;;;;;;;14.03;10.63;;;6.50;99.90;;;;;;5025497;28;20473;-56
2023/10/21 00:39:56;;;;;;;11.03;9.07;;;6.50;99.90;;;;;;5027752;28;20463;-56
2023/10/21 00:42:22;;;;;;;16.00;11.37;;;6.50;99.90;;;;;;5030091;28;20992;-56
2023/10/21 00:44:49;;;;;;;16.90;11.73;;;6.50;99.90;;;;;;5022880;28;20902;-55
2023/10/21 00:47:16;;;;;;;16.13;11.70;;;6.50;99.90;;;;;;5024916;28;20949;-55
2023/10/21 00:49:43;;;;;;;13.90;12.33;;;6.60;99.90;;;;;;5034316;28;20520;-56
2023/10/21 00:52:13;;;;;;;19.23;12.93;;;6.60;99.90;;;;;;5026148;28;20802;-55
2023/10/21 00:54:40;;;;;;;18.60;12.80;;;6.60;99.90;;;;;;5031007;28;20443;-55
2023/10/21 00:57:09;;;;;;;20.90;12.37;;;6.60;99.90;;;;;;5024590;28;20632;-56
2023/10/21 00:59:35;;;;;;;16.87;12.20;;;6.60;99.90;;;;;;5022742;28;20534;-55
2023/10/21 01:02:02;;;;;;;16.00;12.07;;;6.60;99.90;;;;;;5031969;28;20952;-56
2023/10/21 01:04:29;;;;;;;18.70;13.20;;;6.60;99.90;;;;;;5028116;28;20536;-56
2023/10/21 01:06:56;;;;;;;21.00;13.73;;;6.60;99.90;;;;;;5029424;28;20486;-55
2023/10/21 01:09:23;;;;;;;20.77;13.30;;;6.60;99.90;;;;;;5028636;28;20521;-55
2023/10/21 01:11:49;;;;;;;17.80;12.70;;;6.60;99.90;;;;;;5021607;28;20887;-56
2023/10/21 01:14:18;;;;;;;18.30;13.27;;;6.70;99.90;;;;;;5032149;28;20975;-56
2023/10/21 01:16:44;;;;;;;20.77;14.10;;;6.60;99.90;;;;;;5028978;28;20475;-56
2023/10/21 01:19:13;;;;;;;21.80;14.73;;;6.70;99.90;;;;;;5031439;28;20439;-56
2023/10/21 01:21:40;;;;;;;20.73;14.40;;;6.70;99.90;;;;;;5029573;28;20969;-55
2023/10/21 01:24:08;;;;;;;18.07;13.13;;;6.70;99.90;;;;;;5029034;28;20504;-55
2023/10/21 01:26:35;;;;;;;18.47;13.90;;;6.70;99.90;;;;;;5032769;28;20536;-56
2023/10/21 01:29:02;;;;;;;18.87;13.90;;;6.70;99.90;;;;;;5029102;28;20840;-54
2023/10/21 01:31:32;;;;;;;20.97;13.50;;;6.70;99.90;;;;;;5029612;28;20466;-56
2023/10/21 01:33:59;;;;;;;25.17;13.97;;;6.70;99.90;;;;;;5031921;28;20466;-55
2023/10/21 01:36:25;;;;;;;17.17;13.20;;;6.70;99.90;;;;;;5031411;28;20510;-55
2023/10/21 01:38:52;;;;;;;22.23;14.13;;;6.80;99.90;;;;;;5025821;28;20506;-55
2023/10/21 01:41:20;;;;;;;20.50;14.03;;;6.70;99.90;;;;;;5034684;28;20442;-55
2023/10/21 01:43:46;;;;;;;21.57;13.00;;;6.70;99.90;;;;;;5029888;28;20470;-54
2023/10/21 01:46:13;;;;;;;18.23;13.20;;;6.80;99.90;;;;;;5028848;28;20490;-55
2023/10/21 01:48:39;;;;;;;17.10;13.80;;;6.80;99.90;;;;;;5034519;28;20458;-55
2023/10/21 01:51:06;;;;;;;21.37;14.17;;;6.80;99.90;;;;;;5033045;28;20455;-56
2023/10/21 01:53:32;;;;;;;18.17;14.13;;;6.80;99.90;;;;;;5029816;28;20873;-56
2023/10/21 01:56:00;;;;;;;21.27;14.77;;;6.80;99.90;;;;;;5025652;28;20486;-55
2023/10/21 01:58:28;;;;;;;23.83;13.80;;;6.80;99.90;;;;;;5029159;28;20965;-55
2023/10/21 02:00:55;;;;;;;22.70;13.43;;;6.80;99.90;;;;;;5031290;28;21001;-55
2023/10/21 02:03:21;;;;;;;30.43;14.33;;;6.80;99.90;;;;;;5033766;28;20953;-56
2023/10/21 02:05:48;;;;;;;31.20;13.77;;;6.80;99.90;;;;;;5034006;28;20552;-56
2023/10/21 02:08:15;;;;;;;22.57;15.33;;;6.80;99.90;;;;;;5033999;28;20463;-56
2023/10/21 02:10:41;;;;;;;26.80;16.30;;;6.80;99.90;;;;;;5031166;28;20525;-56
2023/10/21 02:13:08;;;;;;;22.87;15.70;;;6.90;99.90;;;;;;5025946;28;20459;-56
2023/10/21 02:15:37;;;;;;;24.40;14.73;;;6.80;99.90;;;;;;5032471;28;20953;-55
2023/10/21 02:18:04;;;;;;;28.20;16.40;;;6.80;99.90;;;;;;5035544;28;20482;-56
2023/10/21 02:20:31;;;;;;;19.13;14.83;;;6.90;99.90;;;;;;5036168;28;20470;-56
2023/10/21 02:22:57;;;;;;;28.47;15.23;;;6.90;99.90;;;;;;5033690;28;20458;-55
2023/10/21 02:25:24;;;;;;;25.20;16.90;;;6.90;99.90;;;;;;5031501;28;20510;-56
2023/10/21 02:27:50;;;;;;;20.53;15.17;;;6.90;99.90;;;;;;5029006;28;20522;-56
2023/10/21 02:30:18;;;;;;;22.50;15.90;;;6.90;99.90;;;;;;5027282;28;20486;-55
2023/10/21 02:32:47;;;;;;;36.30;17.87;;;6.90;99.90;;;;;;5029618;28;20443;-56
2023/10/21 02:35:14;;;;;;;29.70;15.20;;;6.90;99.90;;;;;;5026869;28;20439;-55
2023/10/21 02:37:40;;;;;;;20.70;15.00;;;6.90;99.90;;;;;;5024863;28;20561;-56
2023/10/21 02:40:08;;;;;;;23.80;16.23;;;6.90;99.90;;;;;;5031225;28;20443;-56
2023/10/21 02:42:36;;;;;;;28.57;17.03;;;6.90;99.90;;;;;;5028926;28;20944;-56
2023/10/21 02:45:02;;;;;;;24.87;15.33;;;6.90;99.90;;;;;;5024455;28;20566;-56
2023/10/21 02:47:29;;;;;;;23.10;15.20;;;6.90;99.90;;;;;;5019934;28;20479;-54
2023/10/21 02:49:57;;;;;;;24.67;15.77;;;7.00;99.90;;;;;;5022165;28;20995;-54
2023/10/21 02:52:24;;;;;;;21.53;15.60;;;6.90;99.90;;;;;;5031767;28;20494;-55
2023/10/21 02:54:50;;;;;;;26.67;15.00;;;7.00;99.90;;;;;;5017291;28;20467;-55
2023/10/21 02:57:17;;;;;;;27.73;15.10;;;7.00;99.90;;;;;;5032871;28;20557;-54
2023/10/21 02:59:44;;;;;;;19.00;14.40;;;7.00;99.90;;;;;;5024592;28;20463;-56
2023/10/21 03:02:10;;;;;;;21.23;14.97;;;7.00;99.90;;;;;;5025883;28;20501;-55
2023/10/21 03:04:37;;;;;;;24.50;15.40;;;7.00;99.90;;;;;;5015213;28;20464;-55
2023/10/21 03:07:05;;;;;;;23.73;15.23;;;7.00;99.90;;;;;;5028786;28;20553;-55
2023/10/21 03:09:31;;;;;;;40.23;15.23;;;7.00;99.90;;;;;;5022965;28;20510;-54
2023/10/21 03:11:58;;;;;;;33.53;14.50;;;7.00;99.90;;;;;;5031217;28;20903;-56
2023/10/21 03:14:24;;;;;;;25.17;15.97;;;7.00;99.90;;;;;;5023483;28;20538;-55
2023/10/21 03:16:51;;;;;;;54.50;15.17;;;7.00;99.90;;;;;;5024226;28;20533;-55
2023/10/21 03:19:17;;;;;;;23.80;14.10;;;7.00;99.90;;;;;;5028916;28;20499;-56
2023/10/21 03:21:45;;;;;;;42.53;15.00;;;7.00;99.90;;;;;;5020745;28;21027;-55
2023/10/21 03:24:12;;;;;;;19.80;15.00;;;7.00;99.90;;;;;;5029254;28;20564;-56
2023/10/21 03:26:39;;;;;;;37.23;14.73;;;7.10;99.90;;;;;;5025919;28;20587;-54
2023/10/21 03:29:06;;;;;;;22.63;15.83;;;7.00;99.90;;;;;;5022963;28;20499;-58
2023/10/21 03:31:32;;;;;;;28.47;15.23;;;7.10;99.90;;;;;;5031937;28;20546;-55
2023/10/21 03:33:59;;;;;;;26.27;15.00;;;7.10;99.90;;;;;;5029283;28;20499;-55
2023/10/21 03:36:26;;;;;;;25.97;14.27;;;7.00;99.90;;;;;;5019714;28;20490;-55
2023/10/21 03:38:52;;;;;;;19.00;15.00;;;7.00;99.90;;;;;;5028667;28;20462;-54
2023/10/21 03:41:20;;;;;;;22.77;14.70;;;7.10;99.90;;;;;;5026847;28;20506;-55
2023/10/21 03:43:47;;;;;;;27.00;14.50;;;7.00;99.90;;;;;;5030417;28;20466;-54
2023/10/21 03:46:14;;;;;;;54.07;14.37;;;7.10;99.90;;;;;;5031806;28;20515;-54
2023/10/21 03:48:41;;;;;;;17.53;14.13;;;7.10;99.90;;;;;;5027215;28;20466;-55
2023/10/21 03:51:10;;;;;;;43.03;14.90;;;7.10;99.90;;;;;;5024560;28;20469;-56
2023/10/21 03:53:36;;;;;;;21.37;14.40;;;7.10;99.90;;;;;;5029968;28;20548;-55
2023/10/21 03:56:03;;;;;;;31.70;13.80;;;7.10;99.90;;;;;;5030183;28;20443;-56
2023/10/21 03:58:32;;;;;;;35.73;14.70;;;7.10;99.90;;;;;;5058151;22;21180;-57
2023/10/21 04:00:58;;;;;;;38.33;15.20;;;7.10;99.90;;;;;;5048131;28;20446;-56
2023/10/21 04:03:25;;;;;;;24.00;14.20;;;7.10;99.90;;;;;;5072028;28;20445;-56
2023/10/21 04:05:53;;;;;;;31.10;14.87;;;7.10;99.90;;;;;;5062283;28;20488;-55
2023/10/21 04:08:19;;;;;;;20.77;14.70;;;7.10;99.90;;;;;;5046414;28;20831;-55
2023/10/21 04:10:46;;;;;;;70.33;14.83;;;7.10;99.90;;;;;;5048727;28;21005;-63
2023/10/21 04:13:13;;;;;;;18.30;14.80;;;7.10;99.90;;;;;;5051283;28;20535;-63
2023/10/21 04:15:41;;;;;;;38.43;14.23;;;7.20;99.90;;;;;;5051596;28;20445;-62
2023/10/21 04:18:08;;;;;;;29.30;13.90;;;7.20;99.90;;;;;;5051238;28;20981;-62
2023/10/21 04:20:35;;;;;;;23.40;14.47;;;7.20;99.90;;;;;;5054521;28;20974;-63
2023/10/21 04:23:01;;;;;;;35.20;14.00;;;7.20;99.90;;;;;;5047311;28;20454;-62
2023/10/21 04:25:29;;;;;;;37.47;14.67;;;7.20;99.90;;;;;;5049354;28;20457;-64
2023/10/21 04:27:56;;;;;;;25.03;15.33;;;7.20;99.90;;;;;;5053711;28;20484;-62
2023/10/21 04:30:23;;;;;;;26.13;15.83;;;7.20;99.90;;;;;;5051433;28;20452;-62
2023/10/21 04:32:51;;;;;;;41.97;14.73;;;7.20;99.90;;;;;;5051400;28;20814;-63
2023/10/21 04:35:18;;;;;;;25.90;15.17;;;7.20;99.90;;;;;;5052718;28;20523;-63
2023/10/21 04:37:45;;;;;;;32.03;15.77;;;7.20;99.90;;;;;;5064485;28;20465;-60
2023/10/21 04:40:12;;;;;;;28.20;16.03;;;7.20;99.90;;;;;;5050277;28;20950;-62
2023/10/21 04:42:39;;;;;;;46.90;13.60;;;7.20;99.90;;;;;;5053461;28;20500;-62
2023/10/21 04:45:07;;;;;;;37.07;13.20;;;7.20;99.90;;;;;;5053688;28;20979;-62
2023/10/21 04:47:34;;;;;;;23.90;13.40;;;7.20;99.90;;;;;;5049407;28;20489;-63
2023/10/21 04:50:02;;;;;;;37.80;15.10;;;7.20;99.90;;;;;;5040802;28;20524;-64
2023/10/21 04:52:29;;;;;;;41.70;14.53;;;7.20;99.90;;;;;;5048341;28;20901;-63
2023/10/21 04:54:55;;;;;;;28.43;15.20;;;7.20;99.90;;;;;;5050093;28;20501;-55
2023/10/21 04:57:22;;;;;;;32.67;14.90;;;7.20;99.90;;;;;;5063264;28;20813;-55
2023/10/21 04:59:49;;;;;;;24.50;14.20;;;7.20;99.90;;;;;;5069743;28;20506;-55
2023/10/21 05:02:15;;;;;;;34.67;15.03;;;7.30;99.90;;;;;;5047485;28;21012;-55
2023/10/21 05:04:42;;;;;;;30.60;14.87;;;7.30;99.90;;;;;;5057311;28;20518;-55
2023/10/21 05:07:10;;;;;;;19.87;13.60;;;7.30;99.90;;;;;;5066283;28;20485;-55
2023/10/21 05:09:37;;;;;;;46.90;14.27;;;7.30;99.90;;;;;;5055588;28;20481;-54
2023/10/21 05:12:03;;;;;;;30.13;14.57;;;7.30;99.90;;;;;;5051661;28;20849;-57
2023/10/21 05:14:30;;;;;;;27.30;13.13;;;7.20;99.90;;;;;;5051032;28;20919;-56
2023/10/21 05:16:57;;;;;;;29.27;13.63;;;7.20;99.90;;;;;;5051870;28;20473;-54
2023/10/21 05:19:24;;;;;;;55.63;13.97;;;7.20;99.90;;;;;;5043032;28;20515;-62
2023/10/21 05:21:50;;;;;;;15.77;13.60;;;7.20;99.90;;;;;;5064994;28;20471;-63
2023/10/21 05:24:18;;;;;;;52.33;15.60;;;7.20;99.90;;;;;;5070808;28;20452;-55
2023/10/21 05:26:45;;;;;;;40.90;13.77;;;7.30;99.90;;;;;;5046602;28;20486;-55
2023/10/21 05:29:12;;;;;;;25.03;12.67;;;7.20;99.90;;;;;;5053201;28;20450;-54
2023/10/21 05:31:38;;;;;;;19.70;12.60;;;7.30;99.90;;;;;;5057498;28;20466;-55
2023/10/21 05:34:05;;;;;;;16.00;13.00;;;7.30;99.90;;;;;;5060763;28;20445;-55
2023/10/21 05:36:31;;;;;;;14.63;12.10;;;7.30;99.90;;;;;;5046782;28;20450;-56
2023/10/21 05:38:58;;;;;;;25.80;13.73;;;7.30;99.90;;;;;;5051247;28;20865;-57
2023/10/21 05:41:26;;;;;;;18.03;15.10;;;7.30;99.90;;;;;;5050994;28;20826;-56
2023/10/21 05:43:52;;;;;;;19.30;15.80;;;7.30;99.90;;;;;;5050602;28;20474;-55
2023/10/21 05:46:19;;;;;;;35.50;14.50;;;7.40;99.90;;;;;;5050123;28;20477;-57
2023/10/21 05:48:46;;;;;;;77.83;13.33;;;7.30;99.90;;;;;;5049436;28;20990;-56
2023/10/21 05:51:12;;;;;;;30.10;14.50;;;7.40;99.90;;;;;;5060164;28;20466;-55
2023/10/21 05:53:39;;;;;;;23.17;14.17;;;7.30;99.90;;;;;;5074581;28;20506;-55
2023/10/21 05:56:06;;;;;;;52.20;16.07;;;7.40;99.90;;;;;;5074431;28;20441;-55
2023/10/21 05:58:35;;;;;;;23.97;13.53;;;7.40;99.90;;;;;;5071252;28;20468;-57
2023/10/21 06:01:09;;;;;;;20.10;13.83;;;7.40;99.90;;;;;;5051172;28;20853;-57
2023/10/21 06:03:36;;;;;;;24.00;13.93;;;7.40;99.90;;;;;;5054165;28;20438;-56
2023/10/21 06:06:03;;;;;;;29.07;14.33;;;7.40;99.90;;;;;;5052299;28;20474;-57
2023/10/21 06:08:30;;;;;;;34.47;14.40;;;7.50;99.90;;;;;;5054653;28;20508;-59
2023/10/21 06:10:56;;;;;;;17.40;13.27;;;7.40;99.90;;;;;;5068060;28;21000;-57
2023/10/21 06:13:23;;;;;;;66.90;14.90;;;7.50;99.90;;;;;;5064053;28;20942;-61
2023/10/21 06:15:51;;;;;;;38.50;14.60;;;7.50;99.90;;;;;;5053649;28;20445;-62
2023/10/21 06:18:18;;;;;;;15.63;13.90;;;7.50;99.90;;;;;;5053665;28;20457;-55
2023/10/21 06:20:48;;;;;;;26.27;14.50;;;7.60;99.90;;;;;;5054161;28;20495;-61
2023/10/21 06:23:15;;;;;;;30.33;13.10;;;7.60;99.90;;;;;;5047768;28;20547;-62
2023/10/21 06:25:42;;;;;;;19.13;15.20;;;7.60;99.90;;;;;;5042654;28;20463;-58
2023/10/21 06:28:08;;;;;;;29.30;15.23;;;7.70;99.90;;;;;;5050317;28;20920;-54
2023/10/21 06:30:35;;;;;;;39.70;14.97;;;7.70;99.90;;;;;;5052937;28;20465;-54
2023/10/21 06:33:04;;;;;;;32.60;14.90;;;7.70;99.90;;;;;;5053157;28;20446;-55
2023/10/21 06:35:30;;;;;;;28.53;14.17;;;7.70;99.90;;;;;;5052960;28;20442;-55
2023/10/21 06:37:57;;;;;;;17.90;13.70;;;7.70;99.90;;;;;;5054074;28;20489;-61
2023/10/21 06:40:23;;;;;;;24.50;14.00;;;7.70;99.90;;;;;;5051150;28;20981;-56
2023/10/21 06:42:50;;;;;;;20.40;16.13;;;7.80;99.90;;;;;;5051832;28;20512;-55
2023/10/21 06:45:17;;;;;;;25.23;14.13;;;7.80;99.90;;;;;;5059577;28;20488;-56
2023/10/21 06:47:43;;;;;;;28.93;15.07;;;7.80;99.90;;;;;;5059518;28;20494;-56
2023/10/21 06:50:12;;;;;;;33.53;14.17;;;7.80;99.90;;;;;;5054443;28;20473;-57
2023/10/21 06:52:38;;;;;;;38.50;13.80;;;7.80;99.90;;;;;;5050189;28;20464;-62
2023/10/21 06:55:06;;;;;;;21.03;15.20;;;7.80;99.90;;;;;;5048658;28;20882;-57
2023/10/21 06:57:33;;;;;;;23.47;13.10;;;7.90;99.90;;;;;;5050326;28;20481;-60
2023/10/21 06:59:59;;;;;;;18.93;14.73;;;7.80;99.90;;;;;;5051249;28;20458;-61
2023/10/21 07:02:27;;;;;;;19.93;14.70;;;7.80;99.90;;;;;;5049241;28;20465;-62
2023/10/21 07:04:54;;;;;;;18.03;15.50;;;7.80;99.90;;;;;;5053052;28;20489;-61
2023/10/21 07:07:22;;;;;;;26.70;14.63;;;7.90;99.90;;;;;;5047282;28;20497;-62
2023/10/21 07:09:49;;;;;;;21.93;16.37;;;7.90;99.90;;;;;;5048702;28;20462;-55
2023/10/21 07:12:15;;;;;;;31.73;15.43;;;8.00;99.90;;;;;;5049454;28;20555;-54
2023/10/21 07:14:43;;;;;;;20.53;14.80;;;8.00;99.90;;;;;;5048603;28;20458;-55
2023/10/21 07:17:10;;;;;;;29.10;19.53;;;7.90;99.90;;;;;;5052197;28;20462;-54
2023/10/21 07:19:37;;;;;;;30.17;16.40;;;7.90;99.90;;;;;;5052703;28;20813;-60
2023/10/21 07:22:05;;;;;;;21.73;14.57;;;7.90;99.90;;;;;;5049695;28;20942;-55
2023/10/21 07:24:33;;;;;;;16.93;14.83;;;7.90;99.90;;;;;;5051713;28;20434;-56
2023/10/21 07:27:01;;;;;;;17.60;13.43;;;8.00;99.90;;;;;;5048831;28;21002;-57
2023/10/21 07:29:27;;;;;;;16.70;13.87;;;8.00;99.90;;;;;;5054068;28;20454;-58
2023/10/21 07:31:54;;;;;;;20.70;15.23;;;8.00;99.90;;;;;;5050061;28;20462;-58
2023/10/21 07:34:22;;;;;;;20.03;14.80;;;8.10;99.90;;;;;;5047958;28;20943;-57
2023/10/21 07:36:48;;;;;;;16.40;14.70;;;8.00;99.90;;;;;;5047513;28;20482;-55
2023/10/21 07:39:18;;;;;;;23.47;15.13;;;8.10;99.90;;;;;;5049637;28;21063;-58
2023/10/21 07:41:46;;;;;;;16.20;13.87;;;8.10;99.90;;;;;;5050643;28;20497;-58
2023/10/21 07:44:13;;;;;;;27.53;14.47;;;8.10;99.90;;;;;;5047065;28;20882;-57
2023/10/21 07:46:39;;;;;;;15.90;14.20;;;8.10;99.90;;;;;;5047470;28;20466;-55
2023/10/21 07:49:06;;;;;;;21.30;15.40;;;8.20;99.90;;;;;;5047064;28;20461;-56
2023/10/21 07:51:33;;;;;;;27.43;15.97;;;8.20;99.90;;;;;;5049309;28;20458;-55
2023/10/21 07:54:00;;;;;;;19.80;15.40;;;8.20;99.90;;;;;;5050187;28;20465;-56
2023/10/21 07:56:26;;;;;;;22.70;16.37;;;8.30;99.90;;;;;;5043206;28;20442;-58
2023/10/21 07:58:54;;;;;;;16.77;14.37;;;8.30;99.90;;;;;;5051283;28;20461;-57
2023/10/21 08:01:22;;;;;;;17.20;14.53;;;8.40;99.90;;;;;;5048287;28;20932;-55
2023/10/21 08:03:48;;;;;;;17.17;15.20;;;8.40;99.90;;;;;;5044346;28;21005;-57
2023/10/21 08:06:15;;;;;;;17.10;15.30;;;8.50;99.90;;;;;;5050009;28;20951;-60
2023/10/21 08:08:42;;;;;;;20.83;15.70;;;8.60;99.90;;;;;;5051241;28;20489;-58
2023/10/21 08:11:09;;;;;;;19.37;14.23;;;8.60;99.90;;;;;;5048054;28;20462;-56
2023/10/21 08:13:36;;;;;;;17.03;14.47;;;8.60;99.90;;;;;;5049832;28;20868;-55
2023/10/21 08:16:05;;;;;;;18.00;15.50;;;8.70;99.90;;;;;;5051392;28;20870;-57
2023/10/21 08:18:31;;;;;;;20.83;15.60;;;8.70;99.90;;;;;;5051923;28;20838;-59
2023/10/21 08:20:58;;;;;;;18.23;15.67;;;8.80;99.90;;;;;;5051340;28;20450;-57
2023/10/21 08:23:24;;;;;;;18.60;15.20;;;8.70;99.90;;;;;;5051200;28;20473;-56
2023/10/21 08:25:51;;;;;;;17.90;15.67;;;8.70;99.90;;;;;;5050782;28;20499;-57
2023/10/21 08:28:18;;;;;;;17.07;15.23;;;8.80;99.90;;;;;;5049752;28;20927;-56
2023/10/21 08:30:44;;;;;;;32.43;18.40;;;8.80;99.90;;;;;;5051800;28;20453;-54
2023/10/21 08:33:12;;;;;;;25.10;19.00;;;8.80;99.90;;;;;;5050343;28;21010;-58
2023/10/21 08:35:39;;;;;;;36.43;28.80;;;8.90;99.90;;;;;;5043749;28;20796;-57
2023/10/21 08:38:05;;;;;;;27.17;21.70;;;9.00;99.90;;;;;;5047701;28;20527;-57
2023/10/21 08:40:32;;;;;;;20.47;16.70;;;9.00;99.90;;;;;;5052851;28;20507;-57
2023/10/21 08:43:01;;;;;;;21.03;17.23;;;9.00;99.90;;;;;;5049362;28;20474;-56
2023/10/21 08:45:29;;;;;;;18.77;15.50;;;9.10;99.90;;;;;;5049434;28;20504;-56
2023/10/21 08:47:58;;;;;;;18.90;15.90;;;9.20;99.90;;;;;;5049337;28;20481;-58
2023/10/21 08:50:27;;;;;;;18.20;15.20;;;9.20;99.90;;;;;;5048012;28;20470;-57
2023/10/21 08:52:55;;;;;;;18.93;15.70;;;9.30;99.90;;;;;;5043574;28;20489;-56
2023/10/21 08:55:22;;;;;;;20.37;16.63;;;9.40;99.90;;;;;;5048411;28;20464;-61
2023/10/21 08:57:49;;;;;;;16.63;14.83;;;9.40;99.90;;;;;;5049637;28;20482;-61
2023/10/21 09:00:17;;;;;;;17.10;14.77;;;9.40;99.90;;;;;;5047666;28;20461;-56
2023/10/21 09:02:43;;;;;;;16.30;14.60;;;9.50;99.90;;;;;;5049086;28;20472;-57
2023/10/21 09:05:11;;;;;;;21.00;14.57;;;9.60;99.90;;;;;;5049341;28;20465;-57
2023/10/21 09:07:47;;;;;;;15.83;14.07;;;9.60;99.90;;;;;;5046780;28;20535;-61
2023/10/21 09:10:15;;;;;;;18.10;14.27;;;9.70;99.90;;;;;;5048533;28;20820;-60
2023/10/21 09:12:42;;;;;;;15.73;14.03;;;9.80;99.90;;;;;;5049426;28;20877;-62
2023/10/21 09:15:10;;;;;;;18.57;14.57;;;9.90;99.90;;;;;;5047510;28;20481;-59
2023/10/21 09:17:38;;;;;;;22.90;16.57;;;10.00;99.90;;;;;;5046308;28;20593;-55
2023/10/21 09:20:09;;;;;;;16.60;14.43;;;10.00;99.90;;;;;;5046860;28;20469;-60
2023/10/21 09:22:36;;;;;;;14.70;13.20;;;10.10;99.90;;;;;;5049572;28;20457;-61
2023/10/21 09:25:15;;;;;;;18.63;15.27;;;10.20;99.90;;;;;;5051625;28;20835;-60
2023/10/21 09:27:42;;;;;;;17.50;15.20;;;10.70;99.90;;;;;;5049237;28;20536;-60
2023/10/21 09:30:17;;;;;;;15.73;14.10;;;11.00;99.90;;;;;;5052789;28;20466;-60
2023/10/21 09:32:46;;;;;;;14.90;13.40;;;10.80;99.90;;;;;;5047424;28;20469;-61
2023/10/21 09:35:23;;;;;;;17.63;15.07;;;10.90;99.90;;;;;;5052925;28;20446;-61
2023/10/21 09:37:50;;;;;;;20.33;15.30;;;10.90;99.90;;;;;;5054280;28;20491;-54
2023/10/21 09:40:19;;;;;;;16.00;13.93;;;11.00;99.90;;;;;;5046698;28;20493;-53
2023/10/21 09:42:47;;;;;;;18.30;16.40;;;11.00;99.90;;;;;;5052077;28;20503;-60
2023/10/21 09:45:15;;;;;;;19.73;15.27;;;11.10;99.90;;;;;;5051722;28;20462;-57
2023/10/21 09:47:45;;;;;;;15.93;13.90;;;11.10;99.90;;;;;;5050288;28;20496;-56
2023/10/21 09:50:13;;;;;;;16.60;14.27;;;11.20;99.90;;;;;;5053219;28;20456;-56
2023/10/21 09:52:48;;;;;;;21.50;14.87;;;11.20;99.90;;;;;;5051693;28;20453;-55
2023/10/21 09:55:17;;;;;;;16.00;13.40;;;11.30;99.90;;;;;;5052833;28;20511;-55
2023/10/21 09:57:48;;;;;;;15.23;13.63;;;11.40;99.90;;;;;;5070052;22;20493;-61
2023/10/21 10:00:19;;;;;;;14.93;13.43;;;11.40;99.90;;;;;;5071048;28;20449;-64
2023/10/21 10:02:47;;;;;;;16.33;13.60;;;11.40;99.90;;;;;;5066590;28;20446;-62
2023/10/21 10:05:15;;;;;;;16.33;12.23;;;11.50;99.90;;;;;;5054132;28;20442;-62
2023/10/21 10:07:42;;;;;;;14.00;12.40;;;11.50;99.90;;;;;;5061193;28;20486;-62
2023/10/21 10:10:11;;;;;;;14.27;12.77;;;11.50;99.90;;;;;;5055529;28;20477;-63
2023/10/21 10:12:41;;;;;;;14.80;12.90;;;11.50;99.90;;;;;;5047991;28;20538;-62
2023/10/21 10:15:34;;;;;;;15.90;13.93;;;11.70;99.90;;;;;;5053117;28;20441;-61
2023/10/21 10:18:02;;;;;;;15.17;12.83;;;11.80;99.90;;;;;;5029683;28;20608;-61
2023/10/21 10:20:29;;;;;;;14.50;13.00;;;12.00;99.90;;;;;;5051056;28;20460;-63
2023/10/21 10:22:58;;;;;;;15.07;13.40;;;12.20;99.90;;;;;;5047875;28;20450;-63
2023/10/21 10:25:27;;;;;;;14.20;12.70;;;12.20;99.90;;;;;;5042428;28;20947;-63
2023/10/21 10:27:57;;;;;;;12.77;11.53;;;12.30;99.90;;;;;;5044750;28;20485;-61
2023/10/21 10:30:24;;;;;;;14.70;12.03;;;12.20;99.90;;;;;;5045204;28;20446;-62
2023/10/21 10:32:53;;;;;;;16.63;11.10;;;12.30;99.90;;;;;;5047193;28;20462;-62
2023/10/21 10:35:30;;;;;;;13.13;11.73;;;12.40;99.90;;;;;;5052162;28;20464;-62
2023/10/21 10:37:59;;;;;;;17.03;12.03;;;12.50;99.90;;;;;;5050878;28;20523;-62
2023/10/21 10:40:33;;;;;;;13.30;11.57;;;12.60;99.90;;;;;;5042920;28;20461;-63
2023/10/21 10:43:00;;;;;;;13.47;10.60;;;12.70;99.90;;;;;;5049363;28;20465;-62
2023/10/21 10:45:26;;;;;;;12.00;10.70;;;12.80;99.90;;;;;;5052641;28;20501;-62
2023/10/21 10:48:00;;;;;;;11.00;9.73;;;12.80;99.90;;;;;;5049765;28;20485;-62
2023/10/21 10:50:27;;;;;;;11.93;10.57;;;12.90;99.90;;;;;;5044397;28;20553;-63
2023/10/21 10:52:55;;;;;;;10.73;9.63;;;13.00;99.90;;;;;;5048040;28;20466;-64
2023/10/21 10:55:22;;;;;;;11.03;8.93;;;13.00;99.90;;;;;;5051927;28;20538;-61
2023/10/21 10:57:51;;;;;;;12.13;9.20;;;13.00;99.90;;;;;;5061214;28;20833;-62
2023/10/21 11:00:21;;;;;;;13.40;8.97;;;13.10;99.90;;;;;;5042790;28;20457;-62
2023/10/21 11:02:48;;;;;;;7.97;6.83;;;13.20;99.90;;;;;;5044870;28;20488;-62
2023/10/21 11:05:20;;;;;;;13.10;7.60;;;13.20;99.90;;;;;;5050522;28;20480;-63
2023/10/21 11:07:48;;;;;;;7.67;6.67;;;13.30;99.90;;;;;;5045386;28;20481;-63
2023/10/21 11:10:19;;;;;;;8.13;7.33;;;13.30;99.90;;;;;;5055260;28;20496;-62
2023/10/21 11:12:47;;;;;;;8.10;7.27;;;13.40;99.90;;;;;;5074466;28;20501;-62
2023/10/21 11:15:14;;;;;;;7.70;6.90;;;13.50;99.90;;;;;;5073049;28;20496;-62
2023/10/21 11:17:41;;;;;;;6.77;5.90;;;13.70;99.90;;;;;;5053952;28;20859;-62
2023/10/21 11:20:09;;;;;;;7.50;6.70;;;13.90;99.90;;;;;;5051399;28;20454;-60
2023/10/21 11:22:37;;;;;;;6.93;6.23;;;14.20;99.90;;;;;;5044319;28;20462;-63
2023/10/21 11:25:04;;;;;;;8.40;6.57;;;14.50;99.90;;;;;;5035095;28;20467;-62
2023/10/21 11:27:31;;;;;;;13.33;5.77;;;14.60;78.70;;;;;;5048071;28;20506;-62
2023/10/21 11:29:58;;;;;;;6.10;5.50;;;14.70;31.70;;;;;;5052156;28;20482;-61
2023/10/21 11:32:27;;;;;;;5.80;5.30;;;14.80;27.80;;;;;;5051244;28;20524;-62
2023/10/21 11:34:54;;;;;;;6.10;4.47;;;14.80;33.60;;;;;;5044490;28;20472;-63
2023/10/21 11:37:21;;;;;;;4.30;3.93;;;14.90;38.00;;;;;;5037107;28;20911;-62
2023/10/21 11:39:49;;;;;;;6.30;3.50;;;15.10;38.60;;;;;;5038829;28;20880;-62
2023/10/21 11:42:17;;;;;;;4.60;3.30;;;15.20;50.00;;;;;;5041985;28;20549;-62
2023/10/21 11:44:54;;;;;;;3.60;3.00;;;15.30;58.20;;;;;;5051739;28;20446;-62
2023/10/21 11:47:23;;;;;;;3.00;2.80;;;15.30;54.80;;;;;;5049510;28;20513;-63
2023/10/21 11:49:49;;;;;;;3.90;2.53;;;15.30;57.80;;;;;;5039262;28;20488;-63
2023/10/21 11:52:16;;;;;;;4.20;2.80;;;15.30;60.10;;;;;;5037291;28;20463;-61
2023/10/21 11:54:46;;;;;;;2.87;2.00;;;15.30;57.00;;;;;;5044378;28;20477;-62
2023/10/21 11:57:41;;;;;;;2.50;1.97;;;15.30;63.90;;;;;;5051451;28;20476;-62
2023/10/21 12:03:58;;;;;;;1.50;1.40;;;15.40;75.70;;;;;;5049840;28;21058;-62
2023/10/21 12:10:17;;;;;;;2.20;2.00;;;15.60;76.10;;;;;;5042015;28;20522;-62
2023/10/21 12:15:06;;;;;;;3.17;2.17;;;15.60;80.00;;;;;;5064336;28;20429;-61
2023/10/21 12:18:13;;;;;;;7.73;2.70;;;15.60;85.50;;;;;;5052193;28;20465;-63
2023/10/21 12:20:50;;;;;;;6.60;2.57;;;15.60;86.70;;;;;;5045469;28;20454;-62
2023/10/21 12:31:55;;;;;;;7.33;3.60;;;16.60;99.90;;;;;;5046634;28;21698;-61
2023/10/21 12:34:38;;;;;;;3.90;1.90;;;16.90;99.90;;;;;;5046047;28;20472;-63
2023/10/21 12:39:56;;;;;;;2.33;1.83;;;17.20;99.90;;;;;;5044212;28;20793;-62
2023/10/21 12:42:26;;;;;;;4.10;2.20;;;17.20;99.90;;;;;;5040026;28;20974;-62
2023/10/21 12:44:54;;;;;;;2.20;1.80;;;17.20;99.90;;;;;;5051521;28;20446;-62
2023/10/21 12:47:22;;;;;;;1.37;1.23;;;17.30;99.90;;;;;;5049945;28;20469;-62
2023/10/21 12:49:50;;;;;;;1.70;1.10;;;17.30;99.90;;;;;;5048686;28;20563;-63
2023/10/21 12:52:17;;;;;;;2.20;2.10;;;17.20;99.90;;;;;;5041865;28;20454;-62
2023/10/21 12:54:44;;;;;;;1.60;1.50;;;17.10;99.90;;;;;;5042374;28;20532;-63
2023/10/21 12:57:11;;;;;;;1.37;1.27;;;17.00;99.90;;;;;;5053330;28;20460;-63
2023/10/21 12:59:38;;;;;;;1.57;1.40;;;16.90;99.90;;;;;;5052656;28;20496;-62
2023/10/21 13:02:07;;;;;;;2.83;1.20;;;16.90;99.90;;;;;;5050070;28;20498;-63